sensor_id;sensor_type;location;lat;lon;timestamp;pressure;altitude;pressure_sealevel;temperature;humidity
30516;BME280;17297;54.022;10.760;2023-05-21T00:00:05;102238.59;;;14.23;70.10
30516;BME280;17297;54.022;10.760;2023-05-21T00:02:39;102239.63;;;14.22;70.03
30516;BME280;17297;54.022;10.760;2023-05-21T00:05:06;102244.19;;;14.22;70.04
30516;BME280;17297;54.022;10.760;2023-05-21T00:07:35;102234.56;;;14.19;70.34
30516;BME280;17297;54.022;10.760;2023-05-21T00:10:00;102235.25;;;14.21;70.54
30516;BME280;17297;54.022;10.760;2023-05-21T00:12:26;102232.34;;;14.23;70.56
30516;BME280;17297;54.022;10.760;2023-05-21T00:14:51;102235.25;;;14.21;70.55
30516;BME280;17297;54.022;10.760;2023-05-21T00:17:16;102241.03;;;14.18;70.60
30516;BME280;17297;54.022;10.760;2023-05-21T00:19:42;102222.91;;;14.19;70.61
30516;BME280;17297;54.022;10.760;2023-05-21T00:22:07;102225.97;;;14.16;70.82
30516;BME280;17297;54.022;10.760;2023-05-21T00:24:33;102228.50;;;14.17;70.76
30516;BME280;17297;54.022;10.760;2023-05-21T00:26:58;102225.63;;;14.19;70.82
30516;BME280;17297;54.022;10.760;2023-05-21T00:29:24;102218.69;;;14.16;70.85
30516;BME280;17297;54.022;10.760;2023-05-21T00:31:50;102214.13;;;14.17;70.88
30516;BME280;17297;54.022;10.760;2023-05-21T00:34:16;102219.38;;;14.18;70.96
30516;BME280;17297;54.022;10.760;2023-05-21T00:36:46;102219.53;;;14.17;71.24
30516;BME280;17297;54.022;10.760;2023-05-21T00:39:12;102214.50;;;14.14;71.21
30516;BME280;17297;54.022;10.760;2023-05-21T00:41:38;102215.31;;;14.14;71.16
30516;BME280;17297;54.022;10.760;2023-05-21T00:44:07;102199.75;;;14.16;71.24
30516;BME280;17297;54.022;10.760;2023-05-21T00:46:33;102203.66;;;14.14;71.18
30516;BME280;17297;54.022;10.760;2023-05-21T00:48:59;102199.94;;;14.15;71.45
30516;BME280;17297;54.022;10.760;2023-05-21T00:51:24;102204.50;;;14.14;71.48
30516;BME280;17297;54.022;10.760;2023-05-21T00:53:54;102213.47;;;14.15;71.50
30516;BME280;17297;54.022;10.760;2023-05-21T00:56:22;102196.94;;;14.09;71.64
30516;BME280;17297;54.022;10.760;2023-05-21T00:58:47;102197.59;;;14.12;71.71
30516;BME280;17297;54.022;10.760;2023-05-21T01:01:13;102200.31;;;14.12;71.71
30516;BME280;17297;54.022;10.760;2023-05-21T01:03:40;102191.34;;;14.11;71.97
30516;BME280;17297;54.022;10.760;2023-05-21T01:06:07;102194.03;;;14.11;72.03
30516;BME280;17297;54.022;10.760;2023-05-21T01:08:34;102195.75;;;14.12;72.09
30516;BME280;17297;54.022;10.760;2023-05-21T01:11:02;102191.84;;;14.15;72.13
30516;BME280;17297;54.022;10.760;2023-05-21T01:13:30;102202.16;;;14.11;72.23
30516;BME280;17297;54.022;10.760;2023-05-21T01:15:55;102187.97;;;14.09;72.42
30516;BME280;17297;54.022;10.760;2023-05-21T01:18:23;102183.78;;;14.06;72.49
30516;BME280;17297;54.022;10.760;2023-05-21T01:20:49;102189.19;;;14.06;72.44
30516;BME280;17297;54.022;10.760;2023-05-21T01:23:16;102185.63;;;14.06;72.50
30516;BME280;17297;54.022;10.760;2023-05-21T01:25:42;102182.94;;;14.06;72.44
30516;BME280;17297;54.022;10.760;2023-05-21T01:28:09;102203.91;;;14.04;72.71
30516;BME280;17297;54.022;10.760;2023-05-21T01:30:35;102179.56;;;14.04;72.79
30516;BME280;17297;54.022;10.760;2023-05-21T01:33:03;102173.16;;;14.05;72.85
30516;BME280;17297;54.022;10.760;2023-05-21T01:35:35;102181.91;;;14.07;72.77
30516;BME280;17297;54.022;10.760;2023-05-21T01:40:54;102180.88;;;14.08;73.04
30516;BME280;17297;54.022;10.760;2023-05-21T01:43:23;102179.19;;;14.07;72.89
30516;BME280;17297;54.022;10.760;2023-05-21T01:45:53;102185.63;;;14.06;73.19
30516;BME280;17297;54.022;10.760;2023-05-21T01:48:19;102180.59;;;14.03;73.17
30516;BME280;17297;54.022;10.760;2023-05-21T01:50:45;102171.81;;;14.01;73.18
30516;BME280;17297;54.022;10.760;2023-05-21T01:53:11;102175.19;;;14.03;73.23
30516;BME280;17297;54.022;10.760;2023-05-21T01:55:37;102172.28;;;14.04;73.34
30516;BME280;17297;54.022;10.760;2023-05-21T01:58:06;102174.34;;;14.02;73.39
30516;BME280;17297;54.022;10.760;2023-05-21T02:00:32;102172.47;;;14.03;73.56
30516;BME280;17297;54.022;10.760;2023-05-21T02:02:58;102161.81;;;14.01;73.52
30516;BME280;17297;54.022;10.760;2023-05-21T02:05:24;102177.22;;;14.01;73.40
30516;BME280;17297;54.022;10.760;2023-05-21T02:07:50;102172.63;;;14.01;73.62
30516;BME280;17297;54.022;10.760;2023-05-21T02:10:16;102168.25;;;14.00;73.72
30516;BME280;17297;54.022;10.760;2023-05-21T02:12:42;102164.53;;;14.01;73.69
30516;BME280;17297;54.022;10.760;2023-05-21T02:15:07;102164.34;;;14.03;73.64
30516;BME280;17297;54.022;10.760;2023-05-21T02:17:33;102167.06;;;14.03;73.82
30516;BME280;17297;54.022;10.760;2023-05-21T02:20:00;102160.81;;;14.02;73.81
30516;BME280;17297;54.022;10.760;2023-05-21T02:22:38;102163.53;;;14.02;74.10
30516;BME280;17297;54.022;10.760;2023-05-21T02:25:05;102155.56;;;14.01;74.03
30516;BME280;17297;54.022;10.760;2023-05-21T02:27:32;102157.06;;;14.03;74.00
30516;BME280;17297;54.022;10.760;2023-05-21T02:29:59;102149.44;;;14.07;74.13
30516;BME280;17297;54.022;10.760;2023-05-21T02:32:24;102154.00;;;14.06;73.77
30516;BME280;17297;54.022;10.760;2023-05-21T02:34:50;102149.44;;;14.07;74.02
30516;BME280;17297;54.022;10.760;2023-05-21T02:37:15;102146.72;;;14.07;74.22
30516;BME280;17297;54.022;10.760;2023-05-21T02:39:41;102147.56;;;14.07;74.16
30516;BME280;17297;54.022;10.760;2023-05-21T02:42:07;102139.44;;;14.07;74.26
30516;BME280;17297;54.022;10.760;2023-05-21T02:44:33;102133.19;;;14.07;74.39
30516;BME280;17297;54.022;10.760;2023-05-21T02:46:58;102129.66;;;14.06;74.39
30516;BME280;17297;54.022;10.760;2023-05-21T02:49:23;102136.75;;;14.07;74.36
30516;BME280;17297;54.022;10.760;2023-05-21T02:51:49;102135.91;;;14.07;74.43
30516;BME280;17297;54.022;10.760;2023-05-21T02:54:14;102141.31;;;14.07;74.44
30516;BME280;17297;54.022;10.760;2023-05-21T02:56:40;102140.69;;;14.05;74.52
30516;BME280;17297;54.022;10.760;2023-05-21T02:59:05;102133.56;;;14.04;74.60
30516;BME280;17297;54.022;10.760;2023-05-21T03:01:31;102138.81;;;14.05;74.47
30516;BME280;17297;54.022;10.760;2023-05-21T03:03:56;102130.50;;;14.07;74.58
30516;BME280;17297;54.022;10.760;2023-05-21T03:06:23;102135.91;;;14.07;74.64
30516;BME280;17297;54.022;10.760;2023-05-21T03:08:48;102128.47;;;14.09;74.70
30516;BME280;17297;54.022;10.760;2023-05-21T03:11:13;102130.31;;;14.08;74.63
30516;BME280;17297;54.022;10.760;2023-05-21T03:13:40;102129.28;;;14.09;74.79
30516;BME280;17297;54.022;10.760;2023-05-21T03:16:06;102135.53;;;14.10;74.83
30516;BME280;17297;54.022;10.760;2023-05-21T03:18:32;102131.16;;;14.09;74.83
30516;BME280;17297;54.022;10.760;2023-05-21T03:20:57;102127.41;;;14.10;74.73
30516;BME280;17297;54.022;10.760;2023-05-21T03:23:23;102132.16;;;14.08;74.93
30516;BME280;17297;54.022;10.760;2023-05-21T03:25:48;102115.75;;;14.09;74.93
30516;BME280;17297;54.022;10.760;2023-05-21T03:28:15;102114.94;;;14.09;75.14
30516;BME280;17297;54.022;10.760;2023-05-21T03:30:47;102116.44;;;14.12;74.89
30516;BME280;17297;54.022;10.760;2023-05-21T03:33:33;102114.56;;;14.12;75.20
30516;BME280;17297;54.022;10.760;2023-05-21T03:36:02;102113.72;;;14.12;75.12
30516;BME280;17297;54.022;10.760;2023-05-21T03:38:31;102110.66;;;14.15;75.12
30516;BME280;17297;54.022;10.760;2023-05-21T03:40:56;102111.50;;;14.15;75.04
30516;BME280;17297;54.022;10.760;2023-05-21T03:43:22;102108.31;;;14.12;75.15
30516;BME280;17297;54.022;10.760;2023-05-21T03:45:48;102111.50;;;14.15;75.14
30516;BME280;17297;54.022;10.760;2023-05-21T03:48:36;102111.50;;;14.15;74.88
30516;BME280;17297;54.022;10.760;2023-05-21T03:51:02;102108.41;;;14.18;74.88
30516;BME280;17297;54.022;10.760;2023-05-21T03:53:28;102114.66;;;14.19;74.76
30516;BME280;17297;54.022;10.760;2023-05-21T03:55:53;102103.63;;;14.20;74.64
30516;BME280;17297;54.022;10.760;2023-05-21T03:58:21;102105.34;;;14.21;74.68
30516;BME280;17297;54.022;10.760;2023-05-21T04:00:47;102105.13;;;14.23;74.75
30516;BME280;17297;54.022;10.760;2023-05-21T04:03:13;102109.34;;;14.25;74.52
30516;BME280;17297;54.022;10.760;2023-05-21T04:05:41;102104.78;;;14.26;74.60
30516;BME280;17297;54.022;10.760;2023-05-21T04:08:06;102100.88;;;14.28;74.62
30516;BME280;17297;54.022;10.760;2023-05-21T04:10:32;102103.41;;;14.30;74.51
30516;BME280;17297;54.022;10.760;2023-05-21T04:12:58;102112.34;;;14.30;74.49
30516;BME280;17297;54.022;10.760;2023-05-21T04:15:24;102106.09;;;14.30;74.38
30516;BME280;17297;54.022;10.760;2023-05-21T04:17:51;102110.50;;;14.31;74.54
30516;BME280;17297;54.022;10.760;2023-05-21T04:20:17;102106.94;;;14.30;74.45
30516;BME280;17297;54.022;10.760;2023-05-21T04:22:43;102104.03;;;14.32;74.51
30516;BME280;17297;54.022;10.760;2023-05-21T04:25:09;102106.56;;;14.33;74.46
30516;BME280;17297;54.022;10.760;2023-05-21T04:27:37;102108.06;;;14.36;74.57
30516;BME280;17297;54.022;10.760;2023-05-21T04:30:02;102105.38;;;14.36;74.52
30516;BME280;17297;54.022;10.760;2023-05-21T04:32:29;102101.44;;;14.39;74.51
30516;BME280;17297;54.022;10.760;2023-05-21T04:34:55;102107.50;;;14.41;74.40
30516;BME280;17297;54.022;10.760;2023-05-21T04:37:22;102103.75;;;14.42;74.55
30516;BME280;17297;54.022;10.760;2023-05-21T04:39:50;102104.22;;;14.45;74.55
30516;BME280;17297;54.022;10.760;2023-05-21T04:42:18;102100.16;;;14.49;74.80
30516;BME280;17297;54.022;10.760;2023-05-21T04:44:43;102103.16;;;14.54;74.89
30516;BME280;17297;54.022;10.760;2023-05-21T04:47:09;102102.41;;;14.61;74.87
30516;BME280;17297;54.022;10.760;2023-05-21T04:49:37;102099.31;;;14.64;74.83
30516;BME280;17297;54.022;10.760;2023-05-21T04:52:02;102099.59;;;14.69;74.92
30516;BME280;17297;54.022;10.760;2023-05-21T04:54:27;102106.31;;;14.73;74.83
30516;BME280;17297;54.022;10.760;2023-05-21T04:56:54;102097.00;;;14.75;74.74
30516;BME280;17297;54.022;10.760;2023-05-21T04:59:19;102091.41;;;14.77;74.76
30516;BME280;17297;54.022;10.760;2023-05-21T05:01:45;102093.06;;;14.78;74.63
30516;BME280;17297;54.022;10.760;2023-05-21T05:04:11;102095.78;;;14.78;74.59
30516;BME280;17297;54.022;10.760;2023-05-21T05:06:36;102083.91;;;14.79;74.64
30516;BME280;17297;54.022;10.760;2023-05-21T05:09:02;102088.09;;;14.82;74.57
30516;BME280;17297;54.022;10.760;2023-05-21T05:11:29;102081.03;;;14.81;74.69
30516;BME280;17297;54.022;10.760;2023-05-21T05:13:54;102084.19;;;14.84;74.76
30516;BME280;17297;54.022;10.760;2023-05-21T05:16:20;102087.56;;;14.86;74.90
30516;BME280;17297;54.022;10.760;2023-05-21T05:18:50;102077.19;;;14.90;74.84
30516;BME280;17297;54.022;10.760;2023-05-21T05:21:16;102089.50;;;14.92;75.02
30516;BME280;17297;54.022;10.760;2023-05-21T05:23:42;102090.97;;;14.95;74.88
30516;BME280;17297;54.022;10.760;2023-05-21T05:26:09;102086.44;;;14.95;74.83
30516;BME280;17297;54.022;10.760;2023-05-21T05:28:34;102084.34;;;14.97;74.81
30516;BME280;17297;54.022;10.760;2023-05-21T05:31:00;102088.75;;;14.98;74.72
30516;BME280;17297;54.022;10.760;2023-05-21T05:33:25;102089.59;;;14.99;74.68
30516;BME280;17297;54.022;10.760;2023-05-21T05:35:51;102093.81;;;15.01;74.94
30516;BME280;17297;54.022;10.760;2023-05-21T05:38:17;102085.09;;;15.06;74.92
30516;BME280;17297;54.022;10.760;2023-05-21T05:40:42;102081.16;;;15.09;74.76
30516;BME280;17297;54.022;10.760;2023-05-21T05:43:08;102097.22;;;15.10;74.70
30516;BME280;17297;54.022;10.760;2023-05-21T05:45:33;102089.75;;;15.12;74.70
30516;BME280;17297;54.022;10.760;2023-05-21T05:48:00;102088.91;;;15.12;74.45
30516;BME280;17297;54.022;10.760;2023-05-21T05:50:26;102085.38;;;15.11;74.52
30516;BME280;17297;54.022;10.760;2023-05-21T05:52:51;102088.06;;;15.11;74.50
30516;BME280;17297;54.022;10.760;2023-05-21T05:55:16;102088.91;;;15.12;74.53
30516;BME280;17297;54.022;10.760;2023-05-21T05:57:42;102089.91;;;15.11;74.54
30516;BME280;17297;54.022;10.760;2023-05-21T06:00:12;102093.28;;;15.13;74.78
30516;BME280;17297;54.022;10.760;2023-05-21T06:02:37;102089.75;;;15.12;74.56
30516;BME280;17297;54.022;10.760;2023-05-21T06:05:03;102083.94;;;15.15;74.54
30516;BME280;17297;54.022;10.760;2023-05-21T06:07:31;102099.00;;;15.18;74.55
30516;BME280;17297;54.022;10.760;2023-05-21T06:09:56;102080.03;;;15.18;74.66
30516;BME280;17297;54.022;10.760;2023-05-21T06:12:22;102079.44;;;15.22;74.46
30516;BME280;17297;54.022;10.760;2023-05-21T06:14:47;102087.19;;;15.25;74.58
30516;BME280;17297;54.022;10.760;2023-05-21T06:17:13;102087.63;;;15.29;74.49
30516;BME280;17297;54.022;10.760;2023-05-21T06:19:40;102095.38;;;15.32;74.52
30516;BME280;17297;54.022;10.760;2023-05-21T06:22:05;102084.44;;;15.40;74.63
30516;BME280;17297;54.022;10.760;2023-05-21T06:24:31;102091.78;;;15.46;74.56
30516;BME280;17297;54.022;10.760;2023-05-21T06:26:56;102084.94;;;15.51;74.26
30516;BME280;17297;54.022;10.760;2023-05-21T06:29:22;102083.34;;;15.56;74.33
30516;BME280;17297;54.022;10.760;2023-05-21T06:31:47;102087.81;;;15.64;74.24
30516;BME280;17297;54.022;10.760;2023-05-21T06:34:13;102084.53;;;15.68;74.05
30516;BME280;17297;54.022;10.760;2023-05-21T06:36:38;102079.38;;;15.74;74.00
30516;BME280;17297;54.022;10.760;2023-05-21T06:39:04;102083.63;;;15.83;74.08
30516;BME280;17297;54.022;10.760;2023-05-21T06:41:29;102088.50;;;15.94;73.91
30516;BME280;17297;54.022;10.760;2023-05-21T06:43:57;102087.72;;;16.00;73.45
30516;BME280;17297;54.022;10.760;2023-05-21T06:46:41;102081.94;;;16.10;73.34
30516;BME280;17297;54.022;10.760;2023-05-21T06:49:07;102085.75;;;16.15;72.81
30516;BME280;17297;54.022;10.760;2023-05-21T06:51:33;102081.41;;;16.21;72.59
30516;BME280;17297;54.022;10.760;2023-05-21T06:53:59;102076.03;;;16.28;72.35
30516;BME280;17297;54.022;10.760;2023-05-21T06:56:24;102081.50;;;16.34;72.36
30516;BME280;17297;54.022;10.760;2023-05-21T06:58:52;102075.28;;;16.40;72.26
30516;BME280;17297;54.022;10.760;2023-05-21T07:01:19;102080.53;;;16.42;71.71
30516;BME280;17297;54.022;10.760;2023-05-21T07:03:46;102082.38;;;16.42;71.67
30516;BME280;17297;54.022;10.760;2023-05-21T07:06:12;102075.06;;;16.35;71.39
30516;BME280;17297;54.022;10.760;2023-05-21T07:08:37;102082.09;;;16.30;71.58
30516;BME280;17297;54.022;10.760;2023-05-21T07:11:03;102079.97;;;16.25;71.78
30516;BME280;17297;54.022;10.760;2023-05-21T07:13:28;102074.09;;;16.22;71.93
30516;BME280;17297;54.022;10.760;2023-05-21T07:15:56;102062.38;;;16.14;71.89
30516;BME280;17297;54.022;10.760;2023-05-21T07:18:23;102072.78;;;16.11;71.99
30516;BME280;17297;54.022;10.760;2023-05-21T07:20:48;102071.09;;;16.10;72.20
30516;BME280;17297;54.022;10.760;2023-05-21T07:23:14;102070.06;;;16.11;72.19
30516;BME280;17297;54.022;10.760;2023-05-21T07:25:40;102064.44;;;16.12;72.24
30516;BME280;17297;54.022;10.760;2023-05-21T07:28:05;102066.31;;;16.12;72.31
30516;BME280;17297;54.022;10.760;2023-05-21T07:30:31;102057.56;;;16.16;72.40
30516;BME280;17297;54.022;10.760;2023-05-21T07:32:57;102065.97;;;16.22;72.31
30516;BME280;17297;54.022;10.760;2023-05-21T07:35:22;102073.72;;;16.25;72.35
30516;BME280;17297;54.022;10.760;2023-05-21T07:37:49;102068.94;;;16.27;72.25
30516;BME280;17297;54.022;10.760;2023-05-21T07:40:14;102067.69;;;16.29;72.30
30516;BME280;17297;54.022;10.760;2023-05-21T07:42:41;102066.84;;;16.29;72.15
30516;BME280;17297;54.022;10.760;2023-05-21T07:45:07;102064.34;;;16.27;72.03
30516;BME280;17297;54.022;10.760;2023-05-21T07:47:38;102069.75;;;16.27;72.17
30516;BME280;17297;54.022;10.760;2023-05-21T07:50:04;102065.56;;;16.25;72.19
30516;BME280;17297;54.022;10.760;2023-05-21T07:52:30;102063.91;;;16.24;71.84
30516;BME280;17297;54.022;10.760;2023-05-21T07:54:55;102067.00;;;16.21;72.19
30516;BME280;17297;54.022;10.760;2023-05-21T07:57:22;102061.59;;;16.21;72.04
30516;BME280;17297;54.022;10.760;2023-05-21T07:59:57;102065.13;;;16.21;72.05
30516;BME280;17297;54.022;10.760;2023-05-21T08:02:23;102063.63;;;16.19;72.14
30516;BME280;17297;54.022;10.760;2023-05-21T08:04:49;102059.88;;;16.20;72.32
30516;BME280;17297;54.022;10.760;2023-05-21T08:07:14;102064.47;;;16.19;72.30
30516;BME280;17297;54.022;10.760;2023-05-21T08:09:44;102056.53;;;16.17;72.37
30516;BME280;17297;54.022;10.760;2023-05-21T08:12:09;102066.34;;;16.19;72.59
30516;BME280;17297;54.022;10.760;2023-05-21T08:14:38;102052.53;;;16.13;72.29
30516;BME280;17297;54.022;10.760;2023-05-21T08:17:04;102053.97;;;16.09;72.29
30516;BME280;17297;54.022;10.760;2023-05-21T08:19:29;102051.66;;;16.06;72.50
30516;BME280;17297;54.022;10.760;2023-05-21T08:21:55;102056.25;;;16.06;72.71
30516;BME280;17297;54.022;10.760;2023-05-21T08:24:21;102048.50;;;16.03;72.66
30516;BME280;17297;54.022;10.760;2023-05-21T08:26:48;102054.31;;;16.00;72.93
30516;BME280;17297;54.022;10.760;2023-05-21T08:29:14;102057.69;;;16.02;72.97
30516;BME280;17297;54.022;10.760;2023-05-21T08:31:40;102061.22;;;16.02;73.00
30516;BME280;17297;54.022;10.760;2023-05-21T08:34:05;102062.91;;;16.03;73.06
30516;BME280;17297;54.022;10.760;2023-05-21T08:36:39;102065.03;;;16.08;73.12
30516;BME280;17297;54.022;10.760;2023-05-21T08:39:16;102062.94;;;16.10;73.01
30516;BME280;17297;54.022;10.760;2023-05-21T08:41:42;102065.66;;;16.10;73.17
30516;BME280;17297;54.022;10.760;2023-05-21T08:44:14;102063.78;;;16.10;73.01
30516;BME280;17297;54.022;10.760;2023-05-21T08:46:41;102065.66;;;16.10;73.11
30516;BME280;17297;54.022;10.760;2023-05-21T08:49:11;102068.38;;;16.10;73.02
30516;BME280;17297;54.022;10.760;2023-05-21T08:51:37;102061.94;;;16.11;73.35
30516;BME280;17297;54.022;10.760;2023-05-21T08:54:03;102057.97;;;16.13;73.27
30516;BME280;17297;54.022;10.760;2023-05-21T08:56:33;102065.25;;;16.13;73.26
30516;BME280;17297;54.022;10.760;2023-05-21T08:58:59;102051.28;;;16.16;73.21
30516;BME280;17297;54.022;10.760;2023-05-21T09:01:31;102050.28;;;16.17;73.13
30516;BME280;17297;54.022;10.760;2023-05-21T09:04:04;102059.88;;;16.20;73.26
30516;BME280;17297;54.022;10.760;2023-05-21T09:06:29;102058.03;;;16.20;73.39
30516;BME280;17297;54.022;10.760;2023-05-21T09:09:18;102056.78;;;16.23;73.20
30516;BME280;17297;54.022;10.760;2023-05-21T09:11:48;102059.75;;;16.28;73.06
30516;BME280;17297;54.022;10.760;2023-05-21T09:14:13;102062.88;;;16.31;73.02
30516;BME280;17297;54.022;10.760;2023-05-21T09:17:06;102047.91;;;16.35;72.97
30516;BME280;17297;54.022;10.760;2023-05-21T09:19:32;102065.47;;;16.39;73.07
30516;BME280;17297;54.022;10.760;2023-05-21T09:22:01;102065.25;;;16.41;72.80
30516;BME280;17297;54.022;10.760;2023-05-21T09:24:31;102059.63;;;16.43;72.60
30516;BME280;17297;54.022;10.760;2023-05-21T09:26:57;102063.19;;;16.43;72.42
30516;BME280;17297;54.022;10.760;2023-05-21T09:29:23;102060.22;;;16.38;72.32
30516;BME280;17297;54.022;10.760;2023-05-21T09:31:50;102065.41;;;16.33;72.28
30516;BME280;17297;54.022;10.760;2023-05-21T09:34:16;102067.88;;;16.28;72.45
30516;BME280;17297;54.022;10.760;2023-05-21T09:36:44;102070.16;;;16.24;72.51
30516;BME280;17297;54.022;10.760;2023-05-21T09:39:10;102050.72;;;16.21;72.28
30516;BME280;17297;54.022;10.760;2023-05-21T09:41:40;102063.84;;;16.17;72.21
30516;BME280;17297;54.022;10.760;2023-05-21T09:44:06;102065.09;;;16.14;72.58
30516;BME280;17297;54.022;10.760;2023-05-21T09:46:38;102069.03;;;16.12;72.67
30516;BME280;17297;54.022;10.760;2023-05-21T09:49:04;102074.25;;;16.13;72.60
30516;BME280;17297;54.022;10.760;2023-05-21T09:51:30;102066.09;;;16.13;72.83
30516;BME280;17297;54.022;10.760;2023-05-21T09:53:56;102071.13;;;16.16;72.64
30516;BME280;17297;54.022;10.760;2023-05-21T09:56:23;102080.53;;;16.14;72.87
30516;BME280;17297;54.022;10.760;2023-05-21T09:58:53;102065.66;;;16.10;72.80
30516;BME280;17297;54.022;10.760;2023-05-21T10:01:19;102074.63;;;16.10;72.78
30516;BME280;17297;54.022;10.760;2023-05-21T10:03:48;102071.94;;;16.10;72.99
30516;BME280;17297;54.022;10.760;2023-05-21T10:06:16;102067.53;;;16.09;73.07
30516;BME280;17297;54.022;10.760;2023-05-21T10:08:44;102054.63;;;16.11;73.09
30516;BME280;17297;54.022;10.760;2023-05-21T10:11:10;102053.19;;;16.15;73.04
30516;BME280;17297;54.022;10.760;2023-05-21T10:13:39;102048.59;;;16.16;73.22
30516;BME280;17297;54.022;10.760;2023-05-21T10:16:08;102062.16;;;16.16;73.37
30516;BME280;17297;54.022;10.760;2023-05-21T10:18:34;102060.28;;;16.16;73.36
30516;BME280;17297;54.022;10.760;2023-05-21T10:21:01;102053.56;;;16.12;73.51
30516;BME280;17297;54.022;10.760;2023-05-21T10:23:27;102038.53;;;16.10;73.38
30516;BME280;17297;54.022;10.760;2023-05-21T10:25:54;102045.44;;;16.12;73.38
30516;BME280;17297;54.022;10.760;2023-05-21T10:28:21;102044.38;;;16.13;73.38
30516;BME280;17297;54.022;10.760;2023-05-21T10:30:46;102044.00;;;16.16;73.28
30516;BME280;17297;54.022;10.760;2023-05-21T10:33:14;102043.81;;;16.18;73.16
30516;BME280;17297;54.022;10.760;2023-05-21T10:35:41;102048.41;;;16.17;73.24
30516;BME280;17297;54.022;10.760;2023-05-21T10:38:08;102049.03;;;16.20;73.10
30516;BME280;17297;54.022;10.760;2023-05-21T10:40:34;102042.56;;;16.21;73.28
30516;BME280;17297;54.022;10.760;2023-05-21T10:46:09;102042.19;;;16.24;73.38
30516;BME280;17297;54.022;10.760;2023-05-21T10:48:47;102049.94;;;16.27;73.38
30516;BME280;17297;54.022;10.760;2023-05-21T10:51:27;102040.94;;;16.26;73.15
30516;BME280;17297;54.022;10.760;2023-05-21T10:54:19;102036.97;;;16.29;73.22
30516;BME280;17297;54.022;10.760;2023-05-21T10:59:58;102033.84;;;16.32;73.35
30516;BME280;17297;54.022;10.760;2023-05-21T11:02:25;102028.88;;;16.35;73.49
30516;BME280;17297;54.022;10.760;2023-05-21T11:04:58;102024.06;;;16.37;73.56
30516;BME280;17297;54.022;10.760;2023-05-21T11:07:55;102015.09;;;16.37;73.56
30516;BME280;17297;54.022;10.760;2023-05-21T11:10:37;102018.66;;;16.37;73.71
30516;BME280;17297;54.022;10.760;2023-05-21T11:13:05;102019.28;;;16.39;73.65
30516;BME280;17297;54.022;10.760;2023-05-21T11:21:15;102010.78;;;16.49;73.59
30516;BME280;17297;54.022;10.760;2023-05-21T11:23:50;102015.81;;;16.52;73.71
30516;BME280;17297;54.022;10.760;2023-05-21T11:26:16;102011.22;;;16.59;73.63
30516;BME280;17297;54.022;10.760;2023-05-21T11:28:42;102003.31;;;16.65;73.47
30516;BME280;17297;54.022;10.760;2023-05-21T11:31:25;102006.47;;;16.68;73.38
30516;BME280;17297;54.022;10.760;2023-05-21T11:36:43;102015.31;;;16.77;73.26
30516;BME280;17297;54.022;10.760;2023-05-21T11:39:13;102013.44;;;16.84;73.21
30516;BME280;17297;54.022;10.760;2023-05-21T11:41:57;102004.88;;;16.87;72.93
30516;BME280;17297;54.022;10.760;2023-05-21T11:44:38;102004.69;;;16.89;72.67
30516;BME280;17297;54.022;10.760;2023-05-21T11:47:05;102002.59;;;16.91;72.73
30516;BME280;17297;54.022;10.760;2023-05-21T11:49:31;101999.69;;;16.92;72.75
30516;BME280;17297;54.022;10.760;2023-05-21T11:51:59;102008.69;;;16.93;72.54
30516;BME280;17297;54.022;10.760;2023-05-21T11:54:24;101999.69;;;16.92;72.33
30516;BME280;17297;54.022;10.760;2023-05-21T11:56:51;101993.19;;;16.93;72.34
30516;BME280;17297;54.022;10.760;2023-05-21T11:59:18;101999.28;;;16.95;72.38
30516;BME280;17297;54.022;10.760;2023-05-21T12:01:43;102001.59;;;16.98;72.41
30516;BME280;17297;54.022;10.760;2023-05-21T12:04:09;101999.06;;;17.03;72.18
30516;BME280;17297;54.022;10.760;2023-05-21T12:06:38;101994.94;;;17.07;72.08
30516;BME280;17297;54.022;10.760;2023-05-21T12:09:08;101999.94;;;17.11;72.04
30516;BME280;17297;54.022;10.760;2023-05-21T12:11:35;101994.28;;;17.12;71.91
30516;BME280;17297;54.022;10.760;2023-05-21T12:14:00;101992.22;;;17.14;72.06
30516;BME280;17297;54.022;10.760;2023-05-21T12:16:26;101993.03;;;17.15;71.90
30516;BME280;17297;54.022;10.760;2023-05-21T12:18:53;101999.31;;;17.15;71.75
30516;BME280;17297;54.022;10.760;2023-05-21T12:21:18;101990.31;;;17.15;71.82
30516;BME280;17297;54.022;10.760;2023-05-21T12:23:43;101996.59;;;17.15;71.91
30516;BME280;17297;54.022;10.760;2023-05-21T12:26:09;101994.72;;;17.16;71.57
30516;BME280;17297;54.022;10.760;2023-05-21T12:28:35;101995.97;;;17.13;71.24
30516;BME280;17297;54.022;10.760;2023-05-21T12:31:00;101984.25;;;17.13;71.31
30516;BME280;17297;54.022;10.760;2023-05-21T12:33:33;101993.47;;;17.12;71.48
30516;BME280;17297;54.022;10.760;2023-05-21T12:35:58;101988.84;;;17.12;71.52
30516;BME280;17297;54.022;10.760;2023-05-21T12:38:29;101986.78;;;17.14;71.54
30516;BME280;17297;54.022;10.760;2023-05-21T12:40:55;101984.06;;;17.14;71.64
30516;BME280;17297;54.022;10.760;2023-05-21T12:43:20;101989.69;;;17.13;71.43
30516;BME280;17297;54.022;10.760;2023-05-21T12:45:46;101980.91;;;17.11;71.36
30516;BME280;17297;54.022;10.760;2023-05-21T12:48:11;101980.06;;;17.10;71.17
30516;BME280;17297;54.022;10.760;2023-05-21T12:50:40;101982.16;;;17.08;71.39
30516;BME280;17297;54.022;10.760;2023-05-21T12:53:08;101985.91;;;17.07;71.53
30516;BME280;17297;54.022;10.760;2023-05-21T12:55:35;101995.75;;;17.08;71.26
30516;BME280;17297;54.022;10.760;2023-05-21T12:58:01;101994.94;;;17.07;71.09